Nearby METAR Reports

 

KHIF - Hill Afb/Ogden, Utah, USA
Distance from station: ENE 6mi, 9km
Updated: Sun, 18-Nov-2018 9:58pm MST
Clear
Clear
 Wind from ESE
Wind: ESE 7 mph , 11 km/h
Temperature: 28°F , -2°C
Wind Chill: 21°F , -6°C
Dew Point: 16°F , -9°C
Humidity: 59%
Barometer: 30.27 inHg , 1025.1 hPa
Clouds: Clear
Visibility: 10 miles , 16 km
2018/11/19 04:58 KHIF 190458Z AUTO 11006KT 10SM CLR M02/M09 A3027 RMK AO2 SLP267 T10171087
KOGD - Ogden, Utah, USA
Distance from station: NNE 9mi, 14km
Updated: Sun, 18-Nov-2018 9:53pm MST
Clear
Clear
 Wind from S
Wind: S 7 mph , 11 km/h
Temperature: 27°F , -3°C
Wind Chill: 19°F , -7°C
Dew Point: 18°F , -8°C
Humidity: 69%
Barometer: 30.27 inHg , 1025.1 hPa
Clouds: Clear
Visibility: 10 miles , 16 km
2018/11/19 04:53 KOGD 190453Z AUTO 18006KT 10SM CLR M03/M08 A3027 RMK AO2 SLP267 T10331083
 
KSLC - Salt Lake City, Utah, USA
Distance from station: SSE 21mi, 34km
Updated: Sun, 18-Nov-2018 9:54pm MST
Few Clouds
Few Clouds
 Wind from S
Wind: S 3 mph , 6 km/h
Temperature: 30°F , -1°C
Dew Point: 19°F , -7°C
Humidity: 64%
Barometer: 30.29 inHg , 1025.7 hPa
Clouds: Few Clouds
Visibility: 10 miles , 16 km
Cloud details: Few Clouds 23000 ft
2018/11/19 04:54 KSLC 190454Z 17003KT 10SM FEW230 M01/M07 A3029 RMK AO2 SLP270 T10111067
KLGU - Logan, Utah, USA
Distance from station: NNE 50mi, 80km
Updated: Sun, 18-Nov-2018 9:51pm MST
Clear
Clear
 Wind from calm
Wind: Calm
Temperature: 19°F , -7°C
Dew Point: 16°F , -9°C
Humidity: 86%
Barometer: 30.29 inHg , 1025.7 hPa
Clouds: Clear
Visibility: 10 miles , 16 km
2018/11/19 04:51 KLGU 190451Z AUTO 00000KT 10SM CLR M07/M09 A3029 RMK AO2 SLP292 T10671089
 
K36U - Heber/Russ Mcdon, Utah, USA
Distance from station: SE 53mi, 85km
Updated: Wed, 11-Oct-2017 6:50pm MDT
NOT Current
Clear
Clear
 Wind from SSW
Wind: SSW 10 mph , 17 km/h, Gust: 18 mph , 30 km/h
Temperature: 63°F , 17°C
Dew Point: 16°F , -9°C
Humidity: 16%
Barometer: 29.87 inHg , 1011.5 hPa
Clouds: Clear
Visibility: 10 miles , 16 km
2017/10/12 00:50 K36U 120050Z AUTO 21009G16KT 10SM CLR 17/M09 A2987 RMK AO2
KEVW - Evanston, Wyoming, USA
Distance from station: ENE 55mi, 89km
Updated: Sun, 18-Nov-2018 9:53pm MST
Clear
Clear
 Wind from SSW
Wind: SSW 9 mph , 15 km/h
Temperature: 21°F , -6°C
Wind Chill: 11°F , -12°C
Dew Point: 14°F , -10°C
Humidity: 74%
Barometer: 30.23 inHg , 1023.7 hPa
Clouds: Clear
Visibility: 10 miles , 16 km
2018/11/19 04:53 KEVW 190453Z AUTO 21008KT 10SM CLR M06/M10 A3023 RMK AO2 SLP276 T10561100
 
KPVU - Provo Muni, Utah, USA
Distance from station: SSE 62mi, 100km
Updated: Sun, 18-Nov-2018 9:56pm MST
Clear
Clear
 Wind from S
Wind: S 3 mph , 6 km/h
Temperature: 27°F , -3°C
Dew Point: 18°F , -8°C
Humidity: 69%
Barometer: 30.29 inHg , 1025.7 hPa
Clouds: Clear
Visibility: 10 miles , 16 km
2018/11/19 04:56 KPVU 190456Z AUTO 19003KT 10SM CLR M03/M08 A3029 RMK AO2 SLP281 T10281078 FZRANO
KDPG - Dugway Prvg Grou, Utah, USA
Distance from station: SW 75mi, 121km
Updated: Thu, 15-Nov-2018 4:55pm MST
NOT Current
Mostly cloudy
Mostly cloudy
 Wind from NW
Wind: NW 3 mph , 6 km/h
Temperature: 21°F , -6°C
Dew Point: 16°F , -9°C
Humidity: 80%
Barometer: 30.27 inHg , 1025.1 hPa
Clouds: Mostly cloudy
Visibility: 35 miles , 56 km
Cloud details: Mostly cloudy 22000 ft
Mostly cloudy 25000 ft
2018/11/15 23:55 KDPG 152355Z 31003KT 35SM BKN220 BKN250 M06/M09 A3027 RMK SLP262 LAST T00621094
 
KENV - Wendover (aut), Utah, USA
Distance from station: WSW 105mi, 169km
Updated: Sun, 18-Nov-2018 9:56pm MST
Clear
Clear
 Wind from SSW
Wind: SSW 5 mph , 7 km/h
Temperature: 21°F , -6°C
Wind Chill: 14°F , -10°C
Dew Point: 12°F , -11°C
Humidity: 68%
Barometer: 30.28 inHg , 1025.4 hPa
Clouds: Clear
Visibility: 10 miles , 16 km
2018/11/19 04:56 KENV 190456Z AUTO 20004KT 10SM CLR M06/M11 A3028 RMK AO2 SLP295 T10561106 FZRANO
KPUC - Price, Utah, USA
Distance from station: SE 123mi, 197km
Updated: Sun, 18-Nov-2018 9:53pm MST
Clear
Clear
 Wind from NE
Wind: NE 8 mph , 13 km/h
Temperature: 25°F , -4°C
Wind Chill: 16°F , -9°C
Dew Point: 10°F , -12°C
Humidity: 54%
Barometer: 30.21 inHg , 1023 hPa
Clouds: Clear
Visibility: 10 miles , 16 km
2018/11/19 04:53 KPUC 190453Z AUTO 04007KT 10SM CLR M04/M12 A3021 RMK AO2 SLP267 T10441122
 
KPIH - Pocatello, Idaho, USA
Distance from station: NNW 130mi, 208km
Updated: Sun, 18-Nov-2018 9:53pm MST
Clear
Clear
 Wind from NNW
Wind: NNW 5 mph , 7 km/h
Temperature: 18°F , -8°C
Wind Chill: 11°F , -12°C
Dew Point: 16°F , -9°C
Humidity: 93%
Barometer: 30.29 inHg , 1025.7 hPa
Clouds: Clear
Visibility: 10 miles , 16 km
2018/11/19 04:53 KPIH 190453Z 34004KT 10SM CLR M08/M09 A3029 RMK AO2 SLP304 T10781089 $
KBYI - Burley, Idaho, USA
Distance from station: NW 134mi, 216km
Updated: Sun, 18-Nov-2018 9:53pm MST
Clear
Clear
 Wind from calm
Wind: Calm
Temperature: 27°F , -3°C
Dew Point: 19°F , -7°C
Humidity: 74%
Barometer: 30.26 inHg , 1024.7 hPa
Clouds: Clear
Visibility: 10 miles , 16 km
2018/11/19 04:53 KBYI 190453Z AUTO 00000KT 10SM CLR M03/M07 A3026 RMK AO2 SLP276 T10331072
 
KVEL - Vernal, Utah, USA
Distance from station: ESE 140mi, 226km
Updated: Sun, 18-Nov-2018 9:53pm MST
Clear
Clear
 Wind from W
Wind: W 6 mph , 9 km/h
Temperature: 25°F , -4°C
Wind Chill: 18°F , -8°C
Dew Point: 18°F , -8°C
Humidity: 74%
Barometer: 30.23 inHg , 1023.7 hPa
Clouds: Clear
Visibility: 10 miles , 16 km
2018/11/19 04:53 KVEL 190453Z AUTO 28005KT 10SM CLR M04/M08 A3023 RMK AO2 SLP269 T10441083
KBPI - Big Piney, Wyoming, USA
Distance from station: NE 145mi, 234km
Updated: Sun, 18-Nov-2018 9:53pm MST
Clear
Clear
 Wind from ENE
Wind: ENE 6 mph , 9 km/h
Temperature: 12°F , -11°C
Wind Chill: 2°F , -17°C
Dew Point: 5°F , -15°C
Humidity: 73%
Barometer: 30.17 inHg , 1021.7 hPa
Clouds: Clear
Visibility: 10 miles , 16 km
2018/11/19 04:53 KBPI 190453Z AUTO 06005KT 10SM CLR M11/M15 A3017 RMK AO2 SLP281 T11061150